sensor_id;sensor_type;location;lat;lon;timestamp;P1;durP1;ratioP1;P2;durP2;ratioP2
70967;SDS011;58629;48.808;8.820;2022-11-15T00:00:31;4.60;;;3.00;;
70967;SDS011;58629;48.808;8.820;2022-11-15T00:02:56;4.83;;;3.43;;
70967;SDS011;58629;48.808;8.820;2022-11-15T00:05:21;8.10;;;3.50;;
70967;SDS011;58629;48.808;8.820;2022-11-15T00:07:47;6.30;;;3.27;;
70967;SDS011;58629;48.808;8.820;2022-11-15T00:10:12;7.70;;;3.63;;
70967;SDS011;58629;48.808;8.820;2022-11-15T00:12:38;4.87;;;3.60;;
70967;SDS011;58629;48.808;8.820;2022-11-15T00:15:03;4.90;;;3.10;;
70967;SDS011;58629;48.808;8.820;2022-11-15T00:17:29;5.38;;;3.42;;
70967;SDS011;58629;48.808;8.820;2022-11-15T00:19:54;5.23;;;3.03;;
70967;SDS011;58629;48.808;8.820;2022-11-15T00:22:20;5.05;;;3.10;;
70967;SDS011;58629;48.808;8.820;2022-11-15T00:24:45;6.07;;;3.17;;
70967;SDS011;58629;48.808;8.820;2022-11-15T00:27:10;5.37;;;3.13;;
70967;SDS011;58629;48.808;8.820;2022-11-15T00:29:36;5.00;;;2.90;;
70967;SDS011;58629;48.808;8.820;2022-11-15T00:32:03;4.10;;;2.55;;
70967;SDS011;58629;48.808;8.820;2022-11-15T00:34:29;4.40;;;2.83;;
70967;SDS011;58629;48.808;8.820;2022-11-15T00:36:54;6.88;;;3.10;;
70967;SDS011;58629;48.808;8.820;2022-11-15T00:39:19;5.03;;;2.92;;
70967;SDS011;58629;48.808;8.820;2022-11-15T00:41:44;6.35;;;3.10;;
70967;SDS011;58629;48.808;8.820;2022-11-15T00:44:10;5.07;;;3.03;;
70967;SDS011;58629;48.808;8.820;2022-11-15T00:46:35;5.32;;;2.85;;
70967;SDS011;58629;48.808;8.820;2022-11-15T00:49:00;6.28;;;3.42;;
70967;SDS011;58629;48.808;8.820;2022-11-15T00:51:25;5.03;;;3.10;;
70967;SDS011;58629;48.808;8.820;2022-11-15T00:53:51;5.57;;;3.28;;
70967;SDS011;58629;48.808;8.820;2022-11-15T00:56:16;4.77;;;2.97;;
70967;SDS011;58629;48.808;8.820;2022-11-15T00:58:41;5.20;;;3.10;;
70967;SDS011;58629;48.808;8.820;2022-11-15T01:01:11;4.73;;;2.77;;
70967;SDS011;58629;48.808;8.820;2022-11-15T01:03:38;3.83;;;2.47;;
70967;SDS011;58629;48.808;8.820;2022-11-15T01:06:05;5.07;;;2.65;;
70967;SDS011;58629;48.808;8.820;2022-11-15T01:08:32;5.28;;;3.00;;
70967;SDS011;58629;48.808;8.820;2022-11-15T01:11:00;4.43;;;2.60;;
70967;SDS011;58629;48.808;8.820;2022-11-15T01:13:31;4.00;;;2.60;;
70967;SDS011;58629;48.808;8.820;2022-11-15T01:15:58;4.10;;;2.45;;
70967;SDS011;58629;48.808;8.820;2022-11-15T01:18:24;3.92;;;2.50;;
70967;SDS011;58629;48.808;8.820;2022-11-15T01:20:49;3.83;;;2.30;;
70967;SDS011;58629;48.808;8.820;2022-11-15T01:23:15;3.50;;;2.13;;
70967;SDS011;58629;48.808;8.820;2022-11-15T01:25:40;3.27;;;2.00;;
70967;SDS011;58629;48.808;8.820;2022-11-15T01:28:05;2.97;;;2.10;;
70967;SDS011;58629;48.808;8.820;2022-11-15T01:30:30;3.17;;;1.80;;
70967;SDS011;58629;48.808;8.820;2022-11-15T01:32:56;4.30;;;2.33;;
70967;SDS011;58629;48.808;8.820;2022-11-15T01:35:21;4.10;;;2.37;;
70967;SDS011;58629;48.808;8.820;2022-11-15T01:37:46;4.20;;;2.43;;
70967;SDS011;58629;48.808;8.820;2022-11-15T01:40:12;3.60;;;2.30;;
70967;SDS011;58629;48.808;8.820;2022-11-15T01:42:37;3.53;;;2.20;;
70967;SDS011;58629;48.808;8.820;2022-11-15T01:45:02;3.50;;;1.67;;
70967;SDS011;58629;48.808;8.820;2022-11-15T01:47:33;3.70;;;1.90;;
70967;SDS011;58629;48.808;8.820;2022-11-15T01:50:04;3.35;;;2.08;;
70967;SDS011;58629;48.808;8.820;2022-11-15T01:52:33;4.47;;;2.50;;
70967;SDS011;58629;48.808;8.820;2022-11-15T01:57:36;4.38;;;2.55;;
70967;SDS011;58629;48.808;8.820;2022-11-15T02:00:03;4.38;;;2.80;;
70967;SDS011;58629;48.808;8.820;2022-11-15T02:02:30;4.18;;;2.65;;
70967;SDS011;58629;48.808;8.820;2022-11-15T02:04:57;3.90;;;2.40;;
70967;SDS011;58629;48.808;8.820;2022-11-15T02:07:22;3.73;;;2.20;;
70967;SDS011;58629;48.808;8.820;2022-11-15T02:09:48;5.27;;;2.73;;
70967;SDS011;58629;48.808;8.820;2022-11-15T02:12:16;5.45;;;2.88;;
70967;SDS011;58629;48.808;8.820;2022-11-15T02:14:45;6.18;;;2.90;;
70967;SDS011;58629;48.808;8.820;2022-11-15T02:25:18;5.57;;;2.80;;
70967;SDS011;58629;48.808;8.820;2022-11-15T02:31:03;7.77;;;3.47;;
70967;SDS011;58629;48.808;8.820;2022-11-15T02:33:41;6.63;;;3.53;;
70967;SDS011;58629;48.808;8.820;2022-11-15T02:36:16;6.78;;;2.88;;
70967;SDS011;58629;48.808;8.820;2022-11-15T02:39:12;6.13;;;2.78;;
70967;SDS011;58629;48.808;8.820;2022-11-15T02:41:47;4.35;;;2.63;;
70967;SDS011;58629;48.808;8.820;2022-11-15T02:44:21;4.90;;;2.70;;
70967;SDS011;58629;48.808;8.820;2022-11-15T02:46:55;4.65;;;2.78;;
70967;SDS011;58629;48.808;8.820;2022-11-15T02:49:43;4.30;;;2.67;;
70967;SDS011;58629;48.808;8.820;2022-11-15T02:52:15;5.53;;;3.00;;
70967;SDS011;58629;48.808;8.820;2022-11-15T02:54:41;7.20;;;3.17;;
70967;SDS011;58629;48.808;8.820;2022-11-15T02:57:10;9.50;;;4.00;;
70967;SDS011;58629;48.808;8.820;2022-11-15T03:02:36;10.73;;;4.17;;
70967;SDS011;58629;48.808;8.820;2022-11-15T03:05:25;10.63;;;4.05;;
70967;SDS011;58629;48.808;8.820;2022-11-15T03:08:18;7.20;;;3.80;;
70967;SDS011;58629;48.808;8.820;2022-11-15T03:16:20;7.00;;;3.30;;
70967;SDS011;58629;48.808;8.820;2022-11-15T03:19:37;4.50;;;2.38;;
70967;SDS011;58629;48.808;8.820;2022-11-15T03:21:57;3.90;;;2.45;;
70967;SDS011;58629;48.808;8.820;2022-11-15T03:24:27;3.97;;;2.38;;
70967;SDS011;58629;48.808;8.820;2022-11-15T03:26:55;5.13;;;2.40;;
70967;SDS011;58629;48.808;8.820;2022-11-15T03:29:25;3.90;;;2.10;;
70967;SDS011;58629;48.808;8.820;2022-11-15T03:31:55;3.25;;;2.10;;
70967;SDS011;58629;48.808;8.820;2022-11-15T03:34:26;5.70;;;2.42;;
70967;SDS011;58629;48.808;8.820;2022-11-15T03:36:56;2.95;;;1.98;;
70967;SDS011;58629;48.808;8.820;2022-11-15T03:39:22;2.63;;;1.70;;
70967;SDS011;58629;48.808;8.820;2022-11-15T03:41:51;3.10;;;1.98;;
70967;SDS011;58629;48.808;8.820;2022-11-15T03:44:35;2.92;;;1.70;;
70967;SDS011;58629;48.808;8.820;2022-11-15T03:47:11;4.37;;;2.43;;
70967;SDS011;58629;48.808;8.820;2022-11-15T03:49:52;3.92;;;1.90;;
70967;SDS011;58629;48.808;8.820;2022-11-15T03:52:22;3.40;;;1.92;;
70967;SDS011;58629;48.808;8.820;2022-11-15T03:54:55;6.30;;;2.67;;
70967;SDS011;58629;48.808;8.820;2022-11-15T03:57:21;3.97;;;2.05;;
70967;SDS011;58629;48.808;8.820;2022-11-15T03:59:46;3.30;;;2.20;;
70967;SDS011;58629;48.808;8.820;2022-11-15T04:02:12;3.90;;;2.10;;
70967;SDS011;58629;48.808;8.820;2022-11-15T04:04:37;6.03;;;2.97;;
70967;SDS011;58629;48.808;8.820;2022-11-15T04:07:02;3.50;;;2.13;;
70967;SDS011;58629;48.808;8.820;2022-11-15T04:09:27;3.80;;;1.90;;
70967;SDS011;58629;48.808;8.820;2022-11-15T04:11:53;4.73;;;2.60;;
70967;SDS011;58629;48.808;8.820;2022-11-15T04:14:18;4.50;;;2.40;;
70967;SDS011;58629;48.808;8.820;2022-11-15T04:16:43;4.30;;;2.60;;
70967;SDS011;58629;48.808;8.820;2022-11-15T04:19:08;4.67;;;2.60;;
70967;SDS011;58629;48.808;8.820;2022-11-15T04:21:52;4.13;;;2.08;;
70967;SDS011;58629;48.808;8.820;2022-11-15T04:24:36;3.28;;;2.10;;
70967;SDS011;58629;48.808;8.820;2022-11-15T04:27:01;3.20;;;1.83;;
70967;SDS011;58629;48.808;8.820;2022-11-15T04:29:27;5.10;;;2.93;;
70967;SDS011;58629;48.808;8.820;2022-11-15T04:32:04;4.23;;;2.50;;
70967;SDS011;58629;48.808;8.820;2022-11-15T04:34:31;4.25;;;2.38;;
70967;SDS011;58629;48.808;8.820;2022-11-15T04:36:56;4.65;;;2.65;;
70967;SDS011;58629;48.808;8.820;2022-11-15T04:39:36;4.47;;;2.35;;
70967;SDS011;58629;48.808;8.820;2022-11-15T04:42:02;4.17;;;2.40;;
70967;SDS011;58629;48.808;8.820;2022-11-15T04:44:27;3.67;;;2.10;;
70967;SDS011;58629;48.808;8.820;2022-11-15T04:46:53;3.10;;;2.00;;
70967;SDS011;58629;48.808;8.820;2022-11-15T04:49:18;3.63;;;2.10;;
70967;SDS011;58629;48.808;8.820;2022-11-15T04:51:43;3.80;;;2.40;;
70967;SDS011;58629;48.808;8.820;2022-11-15T04:54:09;4.32;;;2.65;;
70967;SDS011;58629;48.808;8.820;2022-11-15T04:56:34;3.87;;;2.40;;
70967;SDS011;58629;48.808;8.820;2022-11-15T04:58:59;5.53;;;3.00;;
70967;SDS011;58629;48.808;8.820;2022-11-15T05:01:25;5.67;;;3.10;;
70967;SDS011;58629;48.808;8.820;2022-11-15T05:03:50;5.83;;;3.30;;
70967;SDS011;58629;48.808;8.820;2022-11-15T05:06:34;5.22;;;2.97;;
70967;SDS011;58629;48.808;8.820;2022-11-15T05:08:59;3.20;;;2.10;;
70967;SDS011;58629;48.808;8.820;2022-11-15T05:11:24;4.43;;;2.40;;
70967;SDS011;58629;48.808;8.820;2022-11-15T05:13:52;4.00;;;2.60;;
70967;SDS011;58629;48.808;8.820;2022-11-15T05:16:17;4.40;;;2.90;;
70967;SDS011;58629;48.808;8.820;2022-11-15T05:18:42;4.87;;;2.70;;
70967;SDS011;58629;48.808;8.820;2022-11-15T05:21:09;4.70;;;2.60;;
70967;SDS011;58629;48.808;8.820;2022-11-15T05:23:36;3.75;;;2.60;;
70967;SDS011;58629;48.808;8.820;2022-11-15T05:26:02;2.95;;;1.90;;
70967;SDS011;58629;48.808;8.820;2022-11-15T05:28:29;3.07;;;1.97;;
70967;SDS011;58629;48.808;8.820;2022-11-15T05:31:01;2.97;;;2.00;;
70967;SDS011;58629;48.808;8.820;2022-11-15T05:33:44;2.72;;;1.67;;
70967;SDS011;58629;48.808;8.820;2022-11-15T05:39:06;4.13;;;2.63;;
70967;SDS011;58629;48.808;8.820;2022-11-15T05:41:42;2.97;;;1.80;;
70967;SDS011;58629;48.808;8.820;2022-11-15T05:44:17;3.83;;;2.28;;
70967;SDS011;58629;48.808;8.820;2022-11-15T05:46:44;4.47;;;2.40;;
70967;SDS011;58629;48.808;8.820;2022-11-15T05:49:11;4.63;;;2.53;;
70967;SDS011;58629;48.808;8.820;2022-11-15T05:51:40;3.85;;;2.30;;
70967;SDS011;58629;48.808;8.820;2022-11-15T05:54:08;3.90;;;2.20;;
70967;SDS011;58629;48.808;8.820;2022-11-15T05:56:34;3.33;;;2.13;;
70967;SDS011;58629;48.808;8.820;2022-11-15T05:59:00;3.60;;;2.00;;
70967;SDS011;58629;48.808;8.820;2022-11-15T06:01:25;3.70;;;1.90;;
70967;SDS011;58629;48.808;8.820;2022-11-15T06:03:52;3.17;;;2.00;;
70967;SDS011;58629;48.808;8.820;2022-11-15T06:06:17;3.47;;;2.20;;
70967;SDS011;58629;48.808;8.820;2022-11-15T06:08:42;4.40;;;1.80;;
70967;SDS011;58629;48.808;8.820;2022-11-15T06:11:07;2.97;;;2.00;;
70967;SDS011;58629;48.808;8.820;2022-11-15T06:13:33;2.60;;;1.97;;
70967;SDS011;58629;48.808;8.820;2022-11-15T06:15:59;3.10;;;1.80;;
70967;SDS011;58629;48.808;8.820;2022-11-15T06:18:24;2.38;;;1.92;;
70967;SDS011;58629;48.808;8.820;2022-11-15T06:20:50;2.63;;;1.80;;
70967;SDS011;58629;48.808;8.820;2022-11-15T06:23:16;2.83;;;1.60;;
70967;SDS011;58629;48.808;8.820;2022-11-15T06:25:42;2.65;;;1.63;;
70967;SDS011;58629;48.808;8.820;2022-11-15T06:28:07;2.10;;;1.50;;
70967;SDS011;58629;48.808;8.820;2022-11-15T06:30:33;4.43;;;2.40;;
70967;SDS011;58629;48.808;8.820;2022-11-15T06:33:02;2.97;;;1.90;;
70967;SDS011;58629;48.808;8.820;2022-11-15T06:35:29;2.28;;;1.67;;
70967;SDS011;58629;48.808;8.820;2022-11-15T06:37:54;3.50;;;2.20;;
70967;SDS011;58629;48.808;8.820;2022-11-15T06:40:20;3.60;;;2.10;;
70967;SDS011;58629;48.808;8.820;2022-11-15T06:42:45;1.90;;;1.70;;
70967;SDS011;58629;48.808;8.820;2022-11-15T06:45:11;2.33;;;1.80;;
70967;SDS011;58629;48.808;8.820;2022-11-15T06:47:43;3.77;;;2.20;;
70967;SDS011;58629;48.808;8.820;2022-11-15T06:50:10;2.47;;;1.63;;
70967;SDS011;58629;48.808;8.820;2022-11-15T06:52:35;3.80;;;1.87;;
70967;SDS011;58629;48.808;8.820;2022-11-15T06:55:01;3.40;;;2.20;;
70967;SDS011;58629;48.808;8.820;2022-11-15T06:57:26;2.53;;;1.80;;
70967;SDS011;58629;48.808;8.820;2022-11-15T06:59:51;6.33;;;2.23;;
70967;SDS011;58629;48.808;8.820;2022-11-15T07:02:16;4.23;;;2.33;;
70967;SDS011;58629;48.808;8.820;2022-11-15T07:04:41;4.50;;;2.30;;
70967;SDS011;58629;48.808;8.820;2022-11-15T07:07:07;2.37;;;1.70;;
70967;SDS011;58629;48.808;8.820;2022-11-15T07:09:32;2.83;;;1.50;;
70967;SDS011;58629;48.808;8.820;2022-11-15T07:11:57;2.00;;;1.50;;
70967;SDS011;58629;48.808;8.820;2022-11-15T07:14:23;3.10;;;1.80;;
70967;SDS011;58629;48.808;8.820;2022-11-15T07:16:48;2.50;;;1.80;;
70967;SDS011;58629;48.808;8.820;2022-11-15T07:19:13;2.23;;;1.50;;
70967;SDS011;58629;48.808;8.820;2022-11-15T07:21:38;2.60;;;1.63;;
70967;SDS011;58629;48.808;8.820;2022-11-15T07:24:04;2.20;;;1.60;;
70967;SDS011;58629;48.808;8.820;2022-11-15T07:26:29;2.43;;;1.70;;
70967;SDS011;58629;48.808;8.820;2022-11-15T07:28:54;2.17;;;1.70;;
70967;SDS011;58629;48.808;8.820;2022-11-15T07:31:20;2.60;;;1.80;;
70967;SDS011;58629;48.808;8.820;2022-11-15T07:33:45;2.13;;;1.60;;
70967;SDS011;58629;48.808;8.820;2022-11-15T07:36:10;3.90;;;1.87;;
70967;SDS011;58629;48.808;8.820;2022-11-15T07:38:36;2.80;;;2.10;;
70967;SDS011;58629;48.808;8.820;2022-11-15T07:41:02;3.97;;;2.60;;
70967;SDS011;58629;48.808;8.820;2022-11-15T07:43:28;3.70;;;2.30;;
70967;SDS011;58629;48.808;8.820;2022-11-15T07:45:54;3.53;;;2.30;;
70967;SDS011;58629;48.808;8.820;2022-11-15T07:48:20;3.43;;;2.00;;
70967;SDS011;58629;48.808;8.820;2022-11-15T07:50:46;2.40;;;1.80;;
70967;SDS011;58629;48.808;8.820;2022-11-15T07:53:11;4.00;;;2.60;;
70967;SDS011;58629;48.808;8.820;2022-11-15T07:55:37;3.57;;;2.37;;
70967;SDS011;58629;48.808;8.820;2022-11-15T07:58:05;4.35;;;2.47;;
70967;SDS011;58629;48.808;8.820;2022-11-15T08:00:32;2.97;;;2.08;;
70967;SDS011;58629;48.808;8.820;2022-11-15T08:03:05;3.17;;;1.80;;
70967;SDS011;58629;48.808;8.820;2022-11-15T08:05:32;3.80;;;2.60;;
70967;SDS011;58629;48.808;8.820;2022-11-15T08:07:57;3.83;;;2.58;;
70967;SDS011;58629;48.808;8.820;2022-11-15T08:10:23;3.92;;;2.25;;
70967;SDS011;58629;48.808;8.820;2022-11-15T08:12:54;3.37;;;2.37;;
70967;SDS011;58629;48.808;8.820;2022-11-15T08:15:22;5.75;;;3.13;;
70967;SDS011;58629;48.808;8.820;2022-11-15T08:17:47;5.17;;;2.70;;
70967;SDS011;58629;48.808;8.820;2022-11-15T08:20:12;3.93;;;2.67;;
70967;SDS011;58629;48.808;8.820;2022-11-15T08:22:38;4.20;;;2.53;;
70967;SDS011;58629;48.808;8.820;2022-11-15T08:25:03;4.43;;;2.77;;
70967;SDS011;58629;48.808;8.820;2022-11-15T08:27:28;3.77;;;2.43;;
70967;SDS011;58629;48.808;8.820;2022-11-15T08:29:54;3.77;;;2.30;;
70967;SDS011;58629;48.808;8.820;2022-11-15T08:32:19;3.33;;;2.15;;
70967;SDS011;58629;48.808;8.820;2022-11-15T08:34:45;2.97;;;1.87;;
70967;SDS011;58629;48.808;8.820;2022-11-15T08:37:10;2.30;;;1.50;;
70967;SDS011;58629;48.808;8.820;2022-11-15T08:39:35;3.33;;;2.03;;
70967;SDS011;58629;48.808;8.820;2022-11-15T08:42:00;2.90;;;1.70;;
70967;SDS011;58629;48.808;8.820;2022-11-15T08:44:26;3.37;;;1.70;;
70967;SDS011;58629;48.808;8.820;2022-11-15T08:46:51;2.97;;;2.00;;
70967;SDS011;58629;48.808;8.820;2022-11-15T08:49:16;3.97;;;2.17;;
70967;SDS011;58629;48.808;8.820;2022-11-15T08:51:42;4.20;;;2.23;;
70967;SDS011;58629;48.808;8.820;2022-11-15T08:54:07;3.83;;;2.07;;
70967;SDS011;58629;48.808;8.820;2022-11-15T08:56:32;3.40;;;2.20;;
70967;SDS011;58629;48.808;8.820;2022-11-15T08:58:58;3.43;;;2.10;;
70967;SDS011;58629;48.808;8.820;2022-11-15T09:01:23;3.10;;;1.73;;
70967;SDS011;58629;48.808;8.820;2022-11-15T09:03:48;3.25;;;2.38;;
70967;SDS011;58629;48.808;8.820;2022-11-15T09:06:13;3.90;;;2.40;;
70967;SDS011;58629;48.808;8.820;2022-11-15T09:08:39;4.57;;;2.53;;
70967;SDS011;58629;48.808;8.820;2022-11-15T09:11:06;4.43;;;2.40;;
70967;SDS011;58629;48.808;8.820;2022-11-15T09:13:32;4.50;;;2.38;;
70967;SDS011;58629;48.808;8.820;2022-11-15T09:15:58;5.07;;;2.43;;
70967;SDS011;58629;48.808;8.820;2022-11-15T09:18:24;3.60;;;2.17;;
70967;SDS011;58629;48.808;8.820;2022-11-15T09:20:50;5.35;;;2.40;;
70967;SDS011;58629;48.808;8.820;2022-11-15T09:23:15;4.10;;;2.50;;
70967;SDS011;58629;48.808;8.820;2022-11-15T09:25:41;3.77;;;2.10;;
70967;SDS011;58629;48.808;8.820;2022-11-15T09:28:07;2.83;;;2.10;;
70967;SDS011;58629;48.808;8.820;2022-11-15T09:30:33;3.67;;;2.13;;
70967;SDS011;58629;48.808;8.820;2022-11-15T09:32:58;3.23;;;2.10;;
70967;SDS011;58629;48.808;8.820;2022-11-15T09:35:24;5.27;;;2.70;;
70967;SDS011;58629;48.808;8.820;2022-11-15T09:37:49;3.20;;;2.00;;
70967;SDS011;58629;48.808;8.820;2022-11-15T09:40:15;2.87;;;1.77;;
70967;SDS011;58629;48.808;8.820;2022-11-15T09:50:42;3.13;;;2.20;;
70967;SDS011;58629;48.808;8.820;2022-11-15T09:56:05;4.43;;;2.00;;
70967;SDS011;58629;48.808;8.820;2022-11-15T10:01:33;3.70;;;2.05;;
70967;SDS011;58629;48.808;8.820;2022-11-15T10:04:06;4.27;;;2.00;;
70967;SDS011;58629;48.808;8.820;2022-11-15T10:06:32;3.42;;;2.10;;
70967;SDS011;58629;48.808;8.820;2022-11-15T10:09:10;3.10;;;1.88;;
70967;SDS011;58629;48.808;8.820;2022-11-15T10:11:40;4.47;;;1.80;;
70967;SDS011;58629;48.808;8.820;2022-11-15T10:14:11;2.83;;;1.90;;
70967;SDS011;58629;48.808;8.820;2022-11-15T10:24:26;2.85;;;1.40;;
70967;SDS011;58629;48.808;8.820;2022-11-15T10:26:55;3.08;;;1.60;;
70967;SDS011;58629;48.808;8.820;2022-11-15T10:29:22;3.78;;;1.60;;
70967;SDS011;58629;48.808;8.820;2022-11-15T10:31:48;2.10;;;1.60;;
70967;SDS011;58629;48.808;8.820;2022-11-15T10:34:15;2.20;;;1.47;;
70967;SDS011;58629;48.808;8.820;2022-11-15T10:36:53;2.75;;;1.45;;
70967;SDS011;58629;48.808;8.820;2022-11-15T10:39:21;2.40;;;1.40;;
70967;SDS011;58629;48.808;8.820;2022-11-15T10:41:46;1.90;;;1.37;;
70967;SDS011;58629;48.808;8.820;2022-11-15T10:54:40;1.80;;;1.20;;
70967;SDS011;58629;48.808;8.820;2022-11-15T10:57:15;1.70;;;1.30;;
70967;SDS011;58629;48.808;8.820;2022-11-15T10:59:44;1.98;;;1.60;;
70967;SDS011;58629;48.808;8.820;2022-11-15T11:02:29;1.98;;;1.30;;
70967;SDS011;58629;48.808;8.820;2022-11-15T11:05:25;1.85;;;1.23;;
70967;SDS011;58629;48.808;8.820;2022-11-15T11:07:58;1.65;;;1.13;;
70967;SDS011;58629;48.808;8.820;2022-11-15T11:10:28;2.33;;;1.10;;
70967;SDS011;58629;48.808;8.820;2022-11-15T11:12:54;1.90;;;1.23;;
70967;SDS011;58629;48.808;8.820;2022-11-15T11:15:19;1.97;;;1.20;;
70967;SDS011;58629;48.808;8.820;2022-11-15T11:18:07;2.30;;;1.10;;
70967;SDS011;58629;48.808;8.820;2022-11-15T11:20:46;2.28;;;1.30;;
70967;SDS011;58629;48.808;8.820;2022-11-15T11:28:52;1.83;;;1.20;;
70967;SDS011;58629;48.808;8.820;2022-11-15T11:31:32;2.67;;;1.60;;
70967;SDS011;58629;48.808;8.820;2022-11-15T11:42:47;2.53;;;1.50;;
70967;SDS011;58629;48.808;8.820;2022-11-15T11:50:26;2.67;;;1.50;;
70967;SDS011;58629;48.808;8.820;2022-11-15T11:55:43;3.88;;;2.17;;
70967;SDS011;58629;48.808;8.820;2022-11-15T11:58:12;3.38;;;1.70;;
70967;SDS011;58629;48.808;8.820;2022-11-15T12:00:43;2.60;;;1.40;;
70967;SDS011;58629;48.808;8.820;2022-11-15T12:05:50;3.22;;;1.58;;
70967;SDS011;58629;48.808;8.820;2022-11-15T12:08:29;2.20;;;1.38;;
70967;SDS011;58629;48.808;8.820;2022-11-15T12:13:39;2.85;;;1.90;;
70967;SDS011;58629;48.808;8.820;2022-11-15T12:16:26;2.05;;;1.38;;
70967;SDS011;58629;48.808;8.820;2022-11-15T12:18:54;1.95;;;1.40;;
70967;SDS011;58629;48.808;8.820;2022-11-15T12:24:06;2.42;;;1.30;;
70967;SDS011;58629;48.808;8.820;2022-11-15T12:26:45;1.50;;;1.00;;
70967;SDS011;58629;48.808;8.820;2022-11-15T12:29:41;2.33;;;1.25;;
70967;SDS011;58629;48.808;8.820;2022-11-15T12:34:53;3.60;;;1.77;;
70967;SDS011;58629;48.808;8.820;2022-11-15T12:37:41;1.98;;;1.33;;
70967;SDS011;58629;48.808;8.820;2022-11-15T12:40:23;1.95;;;1.30;;
70967;SDS011;58629;48.808;8.820;2022-11-15T12:42:59;2.50;;;1.60;;
70967;SDS011;58629;48.808;8.820;2022-11-15T12:45:41;2.40;;;1.38;;
70967;SDS011;58629;48.808;8.820;2022-11-15T12:58:53;1.83;;;1.33;;
70967;SDS011;58629;48.808;8.820;2022-11-15T13:01:52;2.13;;;1.38;;
70967;SDS011;58629;48.808;8.820;2022-11-15T13:06:45;1.48;;;0.80;;
70967;SDS011;58629;48.808;8.820;2022-11-15T13:12:09;1.50;;;1.20;;
70967;SDS011;58629;48.808;8.820;2022-11-15T13:14:41;1.33;;;1.00;;
70967;SDS011;58629;48.808;8.820;2022-11-15T13:22:23;2.55;;;1.10;;
70967;SDS011;58629;48.808;8.820;2022-11-15T13:25:15;1.63;;;1.10;;
70967;SDS011;58629;48.808;8.820;2022-11-15T13:27:52;1.52;;;0.95;;
70967;SDS011;58629;48.808;8.820;2022-11-15T13:30:29;1.95;;;1.00;;
70967;SDS011;58629;48.808;8.820;2022-11-15T13:32:55;1.48;;;1.02;;
70967;SDS011;58629;48.808;8.820;2022-11-15T13:35:27;1.98;;;1.40;;
70967;SDS011;58629;48.808;8.820;2022-11-15T13:37:55;2.30;;;1.40;;
70967;SDS011;58629;48.808;8.820;2022-11-15T13:40:23;2.95;;;1.70;;
70967;SDS011;58629;48.808;8.820;2022-11-15T13:42:55;2.10;;;1.70;;
70967;SDS011;58629;48.808;8.820;2022-11-15T13:45:21;3.55;;;2.10;;
70967;SDS011;58629;48.808;8.820;2022-11-15T13:47:54;3.03;;;2.10;;
70967;SDS011;58629;48.808;8.820;2022-11-15T13:50:21;5.65;;;3.42;;
70967;SDS011;58629;48.808;8.820;2022-11-15T13:52:51;3.92;;;2.40;;
70967;SDS011;58629;48.808;8.820;2022-11-15T13:55:21;4.28;;;2.20;;
70967;SDS011;58629;48.808;8.820;2022-11-15T13:57:49;5.22;;;2.80;;
70967;SDS011;58629;48.808;8.820;2022-11-15T14:03:05;3.95;;;2.83;;
70967;SDS011;58629;48.808;8.820;2022-11-15T14:05:41;3.17;;;2.17;;
70967;SDS011;58629;48.808;8.820;2022-11-15T14:08:21;3.33;;;2.17;;
70967;SDS011;58629;48.808;8.820;2022-11-15T14:10:48;5.20;;;2.85;;
70967;SDS011;58629;48.808;8.820;2022-11-15T14:13:31;5.32;;;2.70;;
70967;SDS011;58629;48.808;8.820;2022-11-15T14:16:16;5.47;;;2.83;;
70967;SDS011;58629;48.808;8.820;2022-11-15T14:21:16;3.60;;;2.30;;
70967;SDS011;58629;48.808;8.820;2022-11-15T14:23:43;4.97;;;2.90;;
70967;SDS011;58629;48.808;8.820;2022-11-15T14:26:25;4.95;;;2.90;;
70967;SDS011;58629;48.808;8.820;2022-11-15T14:28:53;3.57;;;2.40;;
70967;SDS011;58629;48.808;8.820;2022-11-15T14:31:18;6.45;;;3.15;;
70967;SDS011;58629;48.808;8.820;2022-11-15T14:33:45;8.40;;;4.93;;
70967;SDS011;58629;48.808;8.820;2022-11-15T14:36:11;5.53;;;3.20;;
70967;SDS011;58629;48.808;8.820;2022-11-15T14:38:39;3.67;;;2.40;;
70967;SDS011;58629;48.808;8.820;2022-11-15T14:41:05;4.07;;;2.53;;
70967;SDS011;58629;48.808;8.820;2022-11-15T14:43:35;5.57;;;3.30;;
70967;SDS011;58629;48.808;8.820;2022-11-15T14:46:00;5.40;;;3.23;;
70967;SDS011;58629;48.808;8.820;2022-11-15T14:48:25;5.97;;;2.50;;
70967;SDS011;58629;48.808;8.820;2022-11-15T14:50:51;3.83;;;2.27;;
70967;SDS011;58629;48.808;8.820;2022-11-15T14:53:16;4.17;;;2.60;;
70967;SDS011;58629;48.808;8.820;2022-11-15T14:55:43;4.32;;;2.50;;
70967;SDS011;58629;48.808;8.820;2022-11-15T14:58:08;3.57;;;2.37;;
70967;SDS011;58629;48.808;8.820;2022-11-15T15:00:35;5.20;;;3.28;;
70967;SDS011;58629;48.808;8.820;2022-11-15T15:03:02;4.03;;;2.90;;
70967;SDS011;58629;48.808;8.820;2022-11-15T15:05:35;3.83;;;2.45;;
70967;SDS011;58629;48.808;8.820;2022-11-15T15:08:03;3.42;;;2.10;;
70967;SDS011;58629;48.808;8.820;2022-11-15T15:10:50;4.30;;;2.47;;
70967;SDS011;58629;48.808;8.820;2022-11-15T15:13:16;6.38;;;3.40;;
70967;SDS011;58629;48.808;8.820;2022-11-15T15:15:41;4.63;;;2.90;;
70967;SDS011;58629;48.808;8.820;2022-11-15T15:18:08;4.68;;;2.90;;
70967;SDS011;58629;48.808;8.820;2022-11-15T15:20:37;6.23;;;3.60;;
70967;SDS011;58629;48.808;8.820;2022-11-15T15:23:04;5.43;;;2.85;;
70967;SDS011;58629;48.808;8.820;2022-11-15T15:25:31;5.33;;;3.20;;
70967;SDS011;58629;48.808;8.820;2022-11-15T15:27:58;4.80;;;2.80;;
70967;SDS011;58629;48.808;8.820;2022-11-15T15:30:26;4.75;;;2.85;;
70967;SDS011;58629;48.808;8.820;2022-11-15T15:32:53;7.22;;;3.80;;
70967;SDS011;58629;48.808;8.820;2022-11-15T15:35:19;9.57;;;4.50;;
70967;SDS011;58629;48.808;8.820;2022-11-15T15:37:45;7.95;;;3.67;;
70967;SDS011;58629;48.808;8.820;2022-11-15T15:40:19;8.13;;;3.88;;
70967;SDS011;58629;48.808;8.820;2022-11-15T15:42:46;7.43;;;4.00;;
70967;SDS011;58629;48.808;8.820;2022-11-15T15:45:12;8.75;;;3.55;;
70967;SDS011;58629;48.808;8.820;2022-11-15T15:47:39;9.23;;;4.70;;
70967;SDS011;58629;48.808;8.820;2022-11-15T15:50:17;12.43;;;5.22;;
70967;SDS011;58629;48.808;8.820;2022-11-15T15:52:46;8.53;;;4.23;;
70967;SDS011;58629;48.808;8.820;2022-11-15T15:55:12;6.40;;;3.78;;
70967;SDS011;58629;48.808;8.820;2022-11-15T15:57:37;5.63;;;3.10;;
70967;SDS011;58629;48.808;8.820;2022-11-15T16:00:03;4.57;;;2.80;;
70967;SDS011;58629;48.808;8.820;2022-11-15T16:02:29;5.57;;;3.10;;
70967;SDS011;58629;48.808;8.820;2022-11-15T16:04:55;4.50;;;2.77;;
70967;SDS011;58629;48.808;8.820;2022-11-15T16:07:21;4.20;;;3.00;;
70967;SDS011;58629;48.808;8.820;2022-11-15T16:09:48;4.53;;;3.20;;
70967;SDS011;58629;48.808;8.820;2022-11-15T16:12:30;4.67;;;3.00;;
70967;SDS011;58629;48.808;8.820;2022-11-15T16:14:57;10.18;;;4.03;;
70967;SDS011;58629;48.808;8.820;2022-11-15T16:17:24;5.13;;;3.42;;
70967;SDS011;58629;48.808;8.820;2022-11-15T16:19:51;6.70;;;3.60;;
70967;SDS011;58629;48.808;8.820;2022-11-15T16:22:16;7.20;;;4.40;;
70967;SDS011;58629;48.808;8.820;2022-11-15T16:24:42;6.87;;;3.90;;
70967;SDS011;58629;48.808;8.820;2022-11-15T16:27:14;5.93;;;3.67;;
70967;SDS011;58629;48.808;8.820;2022-11-15T16:29:41;6.35;;;3.75;;
70967;SDS011;58629;48.808;8.820;2022-11-15T16:32:06;9.37;;;5.00;;
70967;SDS011;58629;48.808;8.820;2022-11-15T16:34:32;7.80;;;4.63;;
70967;SDS011;58629;48.808;8.820;2022-11-15T16:36:57;7.10;;;4.30;;
70967;SDS011;58629;48.808;8.820;2022-11-15T16:39:22;6.63;;;4.13;;
70967;SDS011;58629;48.808;8.820;2022-11-15T16:41:48;5.63;;;3.50;;
70967;SDS011;58629;48.808;8.820;2022-11-15T16:44:13;4.77;;;3.10;;
70967;SDS011;58629;48.808;8.820;2022-11-15T16:46:40;6.90;;;3.70;;
70967;SDS011;58629;48.808;8.820;2022-11-15T16:49:13;5.10;;;3.42;;
70967;SDS011;58629;48.808;8.820;2022-11-15T16:51:39;5.88;;;3.17;;
70967;SDS011;58629;48.808;8.820;2022-11-15T16:54:05;6.93;;;4.13;;